Latest Coastal Weather Observations for Albany Airport

IDW60701

Issued at 8:23 pm WST Thursday 21 September 2017 (issued every 10 minutes, with the page automatically refreshed every 10 minutes)

About coastal observations | Map of coastal stations | Coastal observations for WA | Marine services | Other Formats
Station Details ID: 009999 Name: ALBANY AIRPORT Lat: -34.94 Lon: 117.82 Height: 68.4 m
Data from the previous 72 hours. | See also: Recent months at Albany Airport
Date/Time
WST
Temp
°C
Wind Pressure Rain since
9am
mm
Weather Cloud Vis
km
Sea
Height
m
Swell
Dir  Spd
kts
Gust
kts
hPa Trend Height
m
Period
s
Dir
21/08:00pm 14.1 NW 14 20 1000.0 - 9.6 - - 10 - - - -
21/07:30pm 14.5 WNW 14 19 999.9 - 9.6 - Partly cloudy 10 - - - -
21/07:00pm 15.0 WNW 15 20 999.4 - 9.6 - Partly cloudy 10 - - - -
21/06:31pm 15.7 WNW 19 31 999.0 - 9.6 - Partly cloudy 10 - - - -
21/06:30pm 15.6 WNW 18 24 999.0 - 9.6 - Partly cloudy 10 - - - -
21/06:00pm 15.8 WNW 17 24 998.7 - 9.6 - - 10 - - - -
21/05:30pm 16.9 WNW 18 28 998.4 - 9.6 - Partly cloudy 10 - - - -
21/05:00pm 17.1 WNW 15 21 998.2 - 9.6 - Partly cloudy 10 - - - -
21/04:30pm 18.2 WNW 22 33 997.8 - 9.6 - - 10 - - - -
21/04:00pm 18.5 WNW 25 37 997.3 - 9.6 - Partly cloudy 10 - - - -
21/03:30pm 18.0 W 22 35 997.2 - 9.6 - Partly cloudy 10 - - - -
21/03:01pm 18.0 W 20 30 997.0 - 9.6 - Partly cloudy 10 - - - -
21/03:00pm 18.0 W 21 30 996.9 - 9.6 Recent precip. Partly cloudy 10 - - - -
21/02:39pm 16.9 W 20 32 997.0 - 9.6 - Partly cloudy 10 - - - -
21/02:31pm 16.2 W 22 29 997.1 - 9.6 - Partly cloudy 10 - - - -
21/02:30pm 15.9 W 23 33 997.1 - 9.6 - Mostly clear 10 - - - -
21/02:12pm 15.3 WSW 21 36 996.8 - 9.6 Showers Mostly clear 10 - - - -
21/02:09pm 16.6 W 20 36 996.7 - 9.0 Showers Partly cloudy 6 - - - -
21/02:07pm 17.7 W 19 36 996.5 - 9.0 - Partly cloudy 10 - - - -
21/02:06pm 19.1 W 19 25 996.6 - 9.0 - Partly cloudy 10 - - - -
21/02:00pm 19.3 WNW 20 27 996.0 - 9.0 - Partly cloudy 10 - - - -
21/01:30pm 17.4 WNW 15 23 996.4 - 9.0 - Partly cloudy 10 - - - -
21/01:08pm 15.7 W 13 18 996.4 - 9.0 - Partly cloudy 10 - - - -
21/01:00pm 15.0 W 13 17 996.6 - 9.0 - Partly cloudy 9 - - - -
21/12:30pm 14.0 SW 16 27 996.9 - 8.6 - Partly cloudy 5 - - - -
21/12:28pm 14.2 SW 17 28 996.8 - 8.6 - Partly cloudy 4 - - - -
21/12:19pm 14.0 W 31 75 995.8 - 8.0 - Partly cloudy 0.5 - - - -
21/12:15pm 14.3 NW 29 75 995.6 - 7.4 Showers Mostly clear 6 - - - -
21/12:13pm 15.3 NNW 26 75 994.6 - 5.4 Thunderstorm Mostly clear 6 - - - -
21/12:12pm 16.4 NNW 23 39 994.6 - 5.0 Thunderstorm Mostly clear 0.2 - - - -
21/12:08pm 17.5 NNW 21 33 994.2 - 3.2 - Partly cloudy 6 - - - -
21/12:07pm 17.6 NNW 20 33 994.4 - 3.0 - Partly cloudy 7 - - - -
21/12:00pm 18.3 NNW 20 28 994.5 - 2.6 Recent precip. Cloudy 10 - - - -
21/11:37am 19.4 NNW 18 32 994.6 - 2.6 - Partly cloudy 10 - - - -
21/11:30am 18.9 NNW 17 25 994.8 - 2.6 - Partly cloudy 10 - - - -
21/11:25am 19.2 NNW 15 25 994.9 - 2.6 - Partly cloudy 10 - - - -
21/11:18am 18.5 NNW 16 22 995.3 - 2.6 - Partly cloudy 10 - - - -
21/11:00am 16.7 NW 24 34 996.6 - 2.2 - Partly cloudy 3 - - - -
21/10:50am 17.5 NNW 25 35 996.8 - 0.6 Showers Mostly clear 3 - - - -
21/10:30am 19.7 NNW 24 37 996.3 - 0.0 - Partly cloudy 10 - - - -
21/10:17am 20.6 NNW 18 31 995.9 - 0.0 - Partly cloudy 10 - - - -
21/10:00am 20.5 NNW 18 26 996.3 - 0.0 - Partly cloudy 10 - - - -
21/09:48am 20.2 NNW 17 27 996.4 - 0.0 - Partly cloudy 10 - - - -
21/09:30am 20.4 NNW 17 26 997.2 - 0.0 - Partly cloudy 10 - - - -
21/09:23am 19.4 N 10 26 997.3 - 0.0 - Partly cloudy 10 - - - -
21/09:00am 16.1 ENE 5 7 998.2 - 2.6 - Cloudy 10 - - - -
21/08:30am 15.7 NNW 1 4 999.1 - 2.6 - Partly cloudy 10 - - - -
21/08:00am 14.7 WSW 2 4 999.6 - 2.6 - Mostly clear 10 - - - -
21/07:30am 13.9 WSW 6 9 1000.5 - 2.6 - Mostly clear 10 - - - -
21/07:19am 13.8 WSW 8 11 1000.7 - 2.6 - Mostly clear 10 - - - -
21/07:08am 13.9 WSW 12 17 1001.0 - 2.6 Showers Mostly clear 10 - - - -
21/07:00am 14.2 WSW 13 21 1001.2 - 2.6 - Mostly clear 10 - - - -
21/06:30am 15.5 NNW 11 15 1000.7 - 2.6 - Partly cloudy 10 - - - -
21/06:00am 15.2 N 11 14 1000.9 - 2.6 Recent precip. Cloudy 10 - - - -
21/05:30am 14.7 N 10 13 1001.1 - 2.4 - Partly cloudy 10 - - - -
21/05:20am 14.5 NNW 10 12 1001.2 - 2.4 - Partly cloudy 10 - - - -
21/05:00am 14.3 N 10 14 1001.4 - 2.4 - Partly cloudy 3 - - - -
21/04:54am 14.5 N 10 14 1001.4 - 2.0 - Partly cloudy 6 - - - -
21/04:42am 14.5 N 9 12 1001.5 - 1.8 - Partly cloudy 9 - - - -
21/04:30am 14.4 N 8 12 1001.6 - 1.6 - Partly cloudy 5 - - - -
21/04:19am 14.8 N 6 9 1001.6 - 0.8 - Partly cloudy 6 - - - -
21/04:00am 15.1 NNW 8 11 1002.3 - 0.4 - Cloudy 10 - - - -
21/03:30am 15.1 NNW 7 11 1003.1 - 0.4 - Partly cloudy 10 - - - -
21/03:00am 14.6 NNW 7 9 1003.6 - 0.4 - Partly cloudy 10 - - - -
21/02:30am 14.5 NNW 8 10 1004.2 - 0.4 - Cloudy 10 - - - -
21/02:00am 14.1 NNW 8 10 1004.3 - 0.4 - Cloudy 10 - - - -
21/01:30am 13.8 NNW 7 9 1005.0 - 0.4 - Partly cloudy 10 - - - -
21/01:00am 13.6 NNW 9 11 1005.2 - 0.4 - Partly cloudy 10 - - - -
21/12:30am 13.6 NNW 10 13 1005.7 - 0.4 - - 10 - - - -
21/12:00am 13.5 NNW 10 13 1006.1 - 0.4 - - 10 - - - -
 
Date/Time
WST
Temp
°C
Wind Pressure Rain since
9am
mm
Weather Cloud Vis
km
Sea
Height
m
Swell
Dir  Spd
kts
Gust
kts
hPa Trend Height
m
Period
s
Dir
20/11:30pm 13.5 NNW 11 15 1006.4 - 0.4 - - 10 - - - -
20/11:00pm 13.3 N 10 13 1007.0 - 0.4 - - 10 - - - -
20/10:30pm 13.0 NNW 8 11 1007.5 - 0.4 - - 10 - - - -
20/10:00pm 13.1 N 8 11 1007.6 - 0.4 - - 10 - - - -
20/09:30pm 12.7 N 7 8 1008.3 - 0.2 - Partly cloudy 10 - - - -
20/09:00pm 12.3 NNE 5 6 1008.7 - 0.2 - Cloudy 10 - - - -
20/08:30pm 13.6 NNE 3 4 1008.8 - 0.2 - Partly cloudy 10 - - - -
20/08:00pm 13.8 N 6 9 1009.0 - 0.2 - Partly cloudy 10 - - - -
20/07:55pm 13.9 NNW 7 9 1009.1 - 0.2 - Partly cloudy 10 - - - -
20/07:32pm 14.8 NW 15 21 1009.8 - 0.2 - Partly cloudy 6 - - - -
20/07:30pm 15.1 NW 14 21 1009.9 - 0.2 - Partly cloudy 10 - - - -
20/07:00pm 15.4 NNE 6 8 1009.0 - 0.2 - Partly cloudy 10 - - - -
20/06:30pm 15.2 NNE 4 7 1008.7 - 0.2 - Partly cloudy 10 - - - -
20/06:00pm 14.7 E 3 4 1008.7 - 0.2 - Partly cloudy 10 - - - -
20/05:30pm 17.0 SSE 2 4 1008.7 - 0.2 - Partly cloudy 10 - - - -
20/05:00pm 17.4 SW 3 5 1008.9 - 0.2 - Partly cloudy 10 - - - -
20/04:30pm 17.3 SW 3 5 1009.0 - 0.2 - Partly cloudy 10 - - - -
20/04:00pm 17.5 SW 4 5 1008.9 - 0.2 - Partly cloudy 10 - - - -
20/03:30pm 18.0 SW 6 8 1009.3 - 0.2 - Partly cloudy 10 - - - -
20/03:00pm 18.6 WSW 7 11 1009.5 - 0.2 - Cloudy 10 - - - -
20/02:30pm 18.4 WNW 7 9 1009.7 - 0.2 - Partly cloudy 10 - - - -
20/02:00pm 18.6 W 7 10 1009.8 - 0.2 - Partly cloudy 10 - - - -
20/01:30pm 17.7 SW 7 9 1009.8 - 0.2 - Partly cloudy 10 - - - -
20/01:00pm 19.6 WNW 11 15 1009.8 - 0.2 - Partly cloudy 10 - - - -
20/12:30pm 18.6 WNW 7 9 1010.1 - 0.2 - Partly cloudy 10 - - - -
20/12:00pm 17.4 W 10 14 1010.6 - 0.2 - Mostly cloudy 10 - - - -
20/11:30am 17.9 WNW 12 16 1010.8 - 0.2 - Partly cloudy 10 - - - -
20/11:00am 17.0 WNW 11 15 1011.0 - 0.2 - Partly cloudy 10 - - - -
20/10:30am 16.6 W 11 16 1011.5 - 0.2 - Partly cloudy 10 - - - -
20/10:00am 16.7 WNW 9 15 1011.6 - 0.0 - Partly cloudy 10 - - - -
20/09:30am 15.9 W 9 12 1011.8 - 0.0 - Partly cloudy 10 - - - -
20/09:00am 14.9 W 11 15 1012.0 - 1.4 - Cloudy 10 - - - -
20/08:30am 14.8 WNW 11 16 1012.0 - 1.4 - Mostly clear 10 - - - -
20/08:00am 13.5 WNW 13 15 1011.5 - 1.4 - Mostly clear 10 - - - -
20/07:30am 13.2 WNW 13 18 1011.4 - 1.4 - Mostly cloudy 10 - - - -
20/07:00am 11.8 NW 10 13 1011.1 - 1.4 - - 10 - - - -
20/06:30am 10.8 NW 8 11 1011.0 - 1.4 - Partly cloudy 10 - - - -
20/06:00am 10.6 NW 9 11 1011.0 - 1.4 - - 10 - - - -
20/05:30am 10.6 NW 7 9 1011.2 - 1.4 - - 10 - - - -
20/05:00am 10.7 NW 7 9 1010.9 - 1.4 - Partly cloudy 10 - - - -
20/04:30am 11.0 NNW 8 10 1010.7 - 1.4 - Partly cloudy 10 - - - -
20/04:00am 11.1 NNW 8 10 1010.7 - 1.4 - Partly cloudy 10 - - - -
20/03:30am 11.6 NW 7 9 1010.6 - 1.4 - - 10 - - - -
20/03:00am 11.7 NW 6 7 1010.6 - 1.4 - Mostly cloudy 10 - - - -
20/02:30am 12.3 NW 7 9 1010.5 - 1.4 - - 10 - - - -
20/02:00am 12.7 NW 9 11 1010.8 - 1.4 - Partly cloudy 10 - - - -
20/01:30am 13.1 NW 9 11 1011.2 - 1.4 - Cloudy 10 - - - -
20/01:00am 13.2 NW 9 12 1011.5 - 1.4 - Cloudy 10 - - - -
20/12:30am 13.1 NW 8 11 1011.7 - 1.4 - Cloudy 10 - - - -
20/12:00am 13.3 NW 7 10 1011.8 - 1.4 - Cloudy 10 - - - -
 
Date/Time
WST
Temp
°C
Wind Pressure Rain since
9am
mm
Weather Cloud Vis
km
Sea
Height
m
Swell
Dir  Spd
kts
Gust
kts
hPa Trend Height
m
Period
s
Dir
19/11:30pm 12.2 NW 5 7 1011.9 - 1.4 - Partly cloudy 10 - - - -
19/11:00pm 12.7 NW 7 8 1012.1 - 1.4 - Partly cloudy 10 - - - -
19/10:30pm 13.9 WNW 8 10 1012.7 - 1.4 - Cloudy 10 - - - -
19/10:00pm 14.2 WNW 9 11 1012.7 - 1.4 - Cloudy 10 - - - -
19/09:30pm 13.7 WNW 6 7 1012.8 - 1.4 - Cloudy 10 - - - -
19/09:00pm 13.7 WNW 7 9 1012.7 - 1.4 - Cloudy 10 - - - -
19/08:30pm 15.0 W 11 15 1012.5 - 1.4 - Cloudy 10 - - - -
19/08:00pm 15.3 W 11 15 1012.6 - 1.4 - Cloudy 10 - - - -
19/07:30pm 15.3 W 11 15 1012.5 - 1.4 - Cloudy 10 - - - -
19/07:00pm 15.6 W 13 16 1012.2 - 1.4 - Cloudy 10 - - - -
19/06:30pm 15.5 WSW 10 14 1011.8 - 1.4 - Cloudy 10 - - - -
19/06:00pm 15.4 WSW 9 13 1011.8 - 1.4 - Mostly cloudy 10 - - - -
19/05:30pm 15.7 WSW 11 15 1011.7 - 1.4 - Partly cloudy 10 - - - -
19/05:00pm 16.1 WSW 13 18 1011.5 - 1.4 - Partly cloudy 10 - - - -
19/04:30pm 16.2 WSW 13 19 1011.4 - 1.4 - Partly cloudy 10 - - - -
19/04:01pm 15.7 WSW 13 19 1011.4 - 1.4 - Partly cloudy 10 - - - -
19/04:00pm 15.7 WSW 13 19 1011.4 - 1.4 - Partly cloudy 10 - - - -
19/03:30pm 15.5 WSW 18 27 1011.4 - 1.4 - Partly cloudy 8 - - - -
19/03:21pm 15.7 WSW 17 27 1011.2 - 1.4 - Partly cloudy 7 - - - -
19/03:00pm 15.8 WSW 14 24 1011.1 - 1.4 Recent precip. Cloudy 8 - - - -
19/02:45pm 15.8 WSW 15 20 1010.9 - 1.4 - Partly cloudy 10 - - - -
19/02:30pm 15.7 WSW 16 25 1010.8 - 1.4 - Partly cloudy 4 - - - -
19/02:02pm 15.7 WSW 17 27 1010.7 - 0.8 - Partly cloudy 3 - - - -
19/02:00pm 15.7 WSW 18 27 1010.7 - 0.8 - Partly cloudy 3 - - - -
19/01:52pm 15.9 WSW 20 30 1010.6 - 0.2 - Partly cloudy 5 - - - -
19/01:51pm 15.9 WSW 20 30 1010.6 - 0.2 - Partly cloudy 6 - - - -
19/01:30pm 18.4 W 18 31 1010.3 - 0.0 - Partly cloudy 10 - - - -
19/01:28pm 19.4 W 17 27 1010.2 - 0.0 - Partly cloudy 10 - - - -
19/01:00pm 24.3 WNW 17 24 1009.8 - 0.0 - Partly cloudy 10 - - - -
19/12:30pm 22.6 WNW 17 26 1010.2 - 0.0 - Partly cloudy 10 - - - -
19/12:00pm 23.1 WNW 16 26 1010.6 - 0.0 - Cloudy 10 - - - -
19/11:56am 22.9 WNW 15 26 1010.6 - 0.0 - Partly cloudy 10 - - - -
19/11:30am 22.4 NW 16 21 1011.0 - 0.0 - Partly cloudy 10 - - - -
19/11:00am 21.4 NW 14 20 1011.3 - 0.0 - Partly cloudy 10 - - - -
19/10:30am 20.5 NW 13 18 1011.7 - 0.0 - - 10 - - - -
19/10:00am 19.4 NW 16 22 1012.2 - 0.0 - - 10 - - - -
19/09:30am 18.7 WNW 16 21 1012.6 - 0.0 - - 10 - - - -
19/09:00am 17.8 NW 12 15 1012.9 - 0.0 - - 10 - - - -
19/08:30am 16.6 WNW 12 15 1013.3 - 0.0 - - 10 - - - -
19/08:00am 14.8 NW 9 12 1013.4 - 0.0 - Partly cloudy 10 - - - -
19/07:30am 13.9 NW 8 11 1013.5 - 0.0 - Partly cloudy 10 - - - -
19/07:00am 12.3 NW 9 10 1013.7 - 0.0 - Partly cloudy 10 - - - -
19/06:30am 11.7 NW 8 10 1013.8 - 0.0 - Partly cloudy 10 - - - -
19/06:00am 11.3 NW 9 10 1013.8 - 0.0 - - 10 - - - -
19/05:30am 11.6 NW 11 14 1013.6 - 0.0 - - 10 - - - -
19/05:00am 11.3 NW 10 12 1013.7 - 0.0 - - 10 - - - -
19/04:30am 11.3 NW 9 12 1013.6 - 0.0 - - 10 - - - -
19/04:00am 9.8 NW 8 8 1013.8 - 0.0 - - 10 - - - -
19/03:30am 10.7 WNW 8 9 1013.8 - 0.0 - - 10 - - - -
19/03:00am 11.3 WNW 8 9 1013.9 - 0.0 - - 10 - - - -
19/02:30am 12.7 NW 8 10 1014.1 - 0.0 - - 10 - - - -
19/02:00am 12.4 NW 8 9 1014.6 - 0.0 - - 10 - - - -
19/01:30am 12.4 WNW 6 8 1015.2 - 0.0 - - 10 - - - -
19/01:00am 13.0 NW 8 8 1015.4 - 0.0 - - 10 - - - -
19/12:30am 12.8 WNW 7 8 1015.6 - 0.0 - - 10 - - - -
19/12:00am 13.0 WNW 7 7 1015.8 - 0.0 - Partly cloudy 10 - - - -
 
Date/Time
WST
Temp
°C
Wind Pressure Rain since
9am
mm
Weather Cloud Vis
km
Sea
Height
m
Swell
Dir  Spd
kts
Gust
kts
hPa Trend Height
m
Period
s
Dir
18/11:30pm 13.7 WNW 8 9 1016.0 - 0.0 - - 10 - - - -
18/11:00pm 14.1 WNW 8 9 1016.3 - 0.0 - - 10 - - - -
18/10:30pm 16.3 NNW 10 14 1016.4 - 0.0 - - 10 - - - -
18/10:00pm 13.5 N 7 8 1016.7 - 0.0 - - 10 - - - -
18/09:30pm 13.8 NNW 8 9 1017.0 - 0.0 - - 10 - - - -
18/09:00pm 13.4 N 9 10 1017.4 - 0.0 - - 10 - - - -
18/08:30pm 12.9 N 6 7 1018.0 - 0.0 - - 10 - - - -

Other Formats:

Comma delimited format used in spreadsheet applications
http://www.bom.gov.au/fwo/IDW60701/IDW60701.94802.axf

JavaScript Object Notation format (JSON) in row-major order
http://www.bom.gov.au/fwo/IDW60701/IDW60701.94802.json